No.3tokuyomaru — JD3132 — position and weather

sailwx.info

Track history (hours):
 
Tides and Currents Weather Stations Pressure Air Temp Water Temp Dewpoint Dewpoint Depression Visibility Wind Speed Wind Dir Waves Ship Positions

No.3tokuyomaru

Last reported at 2016-Sep-30 03:31 UTC. Time now 2016-Sep-30 04:58 UTC.
Position N 35°30' E 139°45'.

Length 67 m; draft 4.3 m.

Type: Tanker. MMSI: 431002151.

Date/timePositionNaut miles runAvg speedWind from/ knotsBaromVisibWave heightAir tempDewpointWater temp
2016-Sep-30 03:31N 35°30' E 139°45'0 0.0
2016-Sep-30 02:28N 35°30' E 139°45'16 5.4
2016-Sep-29 23:33N 35°15' E 139°47'  
2016-Sep-26 08:33N 35°24' E 139°43'19 3.1
2016-Sep-26 02:31N 35°32' E 140°03'0 0.0
2016-Sep-26 01:31N 35°32' E 140°03'0 0.0
2016-Sep-26 00:31N 35°32' E 140°03'8 2.6
2016-Sep-25 21:32N 35°29' E 139°55'0 0.0
2016-Sep-25 17:29N 35°29' E 139°55'0 0.0
2016-Sep-25 16:32N 35°29' E 139°55'0 0.0
2016-Sep-25 15:32N 35°29' E 139°55'0 0.0
2016-Sep-25 14:32N 35°29' E 139°55'0 0.0
2016-Sep-25 12:32N 35°29' E 139°55'0 0.1
2016-Sep-25 11:33N 35°29' E 139°55'1110.9
2016-Sep-25 10:33N 35°21' E 139°45'1111.1
2016-Sep-25 09:33N 35°10' E 139°46'23 1.0
2016-Sep-24 10:33N 35°01' E 140°11'43 2.3
2016-Sep-23 15:26N 35°32' E 140°48'51 5.8
2016-Sep-23 06:33N 35°30' E 139°45'0 0.0
2016-Sep-23 04:32N 35°30' E 139°45'0 0.0
2016-Sep-23 03:08N 35°30' E 139°45'0 0.0
2016-Sep-23 02:32N 35°30' E 139°45'0 0.0
2016-Sep-23 01:27N 35°30' E 139°45'5 5.6
2016-Sep-23 00:33N 35°32' E 139°51'5 4.1
2016-Sep-22 23:28N 35°36' E 139°53'0 0.0
2016-Sep-22 20:31N 35°36' E 139°53'0 0.0
2016-Sep-22 12:31N 35°36' E 139°53'0 0.0
2016-Sep-22 04:31N 35°36' E 139°53'0 0.0
2016-Sep-22 03:31N 35°36' E 139°53'0 0.0
2016-Sep-22 00:31N 35°36' E 139°53'0 0.0
2016-Sep-21 23:31N 35°36' E 139°53'0 0.0
2016-Sep-21 22:31N 35°36' E 139°53'0 0.0
2016-Sep-21 19:31N 35°36' E 139°53'0 0.0
2016-Sep-21 16:31N 35°36' E 139°53'0 0.0
2016-Sep-21 09:28N 35°36' E 139°53'0 0.0
2016-Sep-21 08:22N 35°36' E 139°53'0 0.0
2016-Sep-21 03:31N 35°36' E 139°53'0 0.1
2016-Sep-21 02:31N 35°36' E 139°53'0 0.0
2016-Sep-20 17:31N 35°36' E 139°53'0 0.0
2016-Sep-20 14:26N 35°36' E 139°53'0 0.0
2016-Sep-20 13:26N 35°36' E 139°53'0 0.0
2016-Sep-20 10:27N 35°36' E 139°53'0 0.0
2016-Sep-20 08:24N 35°36' E 139°53'0 0.0
2016-Sep-20 07:30N 35°36' E 139°53'0 0.0
2016-Sep-20 06:33N 35°36' E 139°53'  
Track history (hours):
 
Tides and Currents Weather Stations Pressure Air Temp Water Temp Dewpoint Dewpoint Depression Visibility Wind Speed Wind Dir Waves Ship Positions

No.3tokuyomaru

Last reported at 2016-Sep-30 03:31 UTC. Time now 2016-Sep-30 04:58 UTC.
Position N 35°30' E 139°45'.

Length 67 m; draft 4.3 m.

Type: Tanker. MMSI: 431002151.

Date/timePositionNaut miles runAvg speedWind from/ knotsBaromVisibWave heightAir tempDewpointWater temp
2016-Sep-30 03:31N 35°30' E 139°45'0 0.0
2016-Sep-30 02:28N 35°30' E 139°45'16 5.4
2016-Sep-29 23:33N 35°15' E 139°47'  
2016-Sep-26 08:33N 35°24' E 139°43'19 3.1
2016-Sep-26 02:31N 35°32' E 140°03'0 0.0
2016-Sep-26 01:31N 35°32' E 140°03'0 0.0
2016-Sep-26 00:31N 35°32' E 140°03'8 2.6
2016-Sep-25 21:32N 35°29' E 139°55'0 0.0
2016-Sep-25 17:29N 35°29' E 139°55'0 0.0
2016-Sep-25 16:32N 35°29' E 139°55'0 0.0
2016-Sep-25 15:32N 35°29' E 139°55'0 0.0
2016-Sep-25 14:32N 35°29' E 139°55'0 0.0
2016-Sep-25 12:32N 35°29' E 139°55'0 0.1
2016-Sep-25 11:33N 35°29' E 139°55'1110.9
2016-Sep-25 10:33N 35°21' E 139°45'1111.1
2016-Sep-25 09:33N 35°10' E 139°46'23 1.0
2016-Sep-24 10:33N 35°01' E 140°11'43 2.3
2016-Sep-23 15:26N 35°32' E 140°48'51 5.8
2016-Sep-23 06:33N 35°30' E 139°45'0 0.0
2016-Sep-23 04:32N 35°30' E 139°45'0 0.0
2016-Sep-23 03:08N 35°30' E 139°45'0 0.0
2016-Sep-23 02:32N 35°30' E 139°45'0 0.0
2016-Sep-23 01:27N 35°30' E 139°45'5 5.6
2016-Sep-23 00:33N 35°32' E 139°51'5 4.1
2016-Sep-22 23:28N 35°36' E 139°53'0 0.0
2016-Sep-22 20:31N 35°36' E 139°53'0 0.0
2016-Sep-22 12:31N 35°36' E 139°53'0 0.0
2016-Sep-22 04:31N 35°36' E 139°53'0 0.0
2016-Sep-22 03:31N 35°36' E 139°53'0 0.0
2016-Sep-22 00:31N 35°36' E 139°53'0 0.0
2016-Sep-21 23:31N 35°36' E 139°53'0 0.0
2016-Sep-21 22:31N 35°36' E 139°53'0 0.0
2016-Sep-21 19:31N 35°36' E 139°53'0 0.0
2016-Sep-21 16:31N 35°36' E 139°53'0 0.0
2016-Sep-21 09:28N 35°36' E 139°53'0 0.0
2016-Sep-21 08:22N 35°36' E 139°53'0 0.0
2016-Sep-21 03:31N 35°36' E 139°53'0 0.1
2016-Sep-21 02:31N 35°36' E 139°53'0 0.0
2016-Sep-20 17:31N 35°36' E 139°53'0 0.0
2016-Sep-20 14:26N 35°36' E 139°53'0 0.0
2016-Sep-20 13:26N 35°36' E 139°53'0 0.0
2016-Sep-20 10:27N 35°36' E 139°53'0 0.0
2016-Sep-20 08:24N 35°36' E 139°53'0 0.0
2016-Sep-20 07:30N 35°36' E 139°53'0 0.0
2016-Sep-20 06:33N 35°36' E 139°53'  

Dump ship's entire track history